sensor_id;sensor_type;location;lat;lon;timestamp;P1;durP1;ratioP1;P2;durP2;ratioP2
9270;SDS011;4673;53.458;9.940;2022-10-20T00:01:58;3.10;;;3.10;;
9270;SDS011;4673;53.458;9.940;2022-10-20T00:04:24;3.00;;;3.00;;
9270;SDS011;4673;53.458;9.940;2022-10-20T00:06:49;3.60;;;3.60;;
9270;SDS011;4673;53.458;9.940;2022-10-20T00:09:15;3.47;;;3.47;;
9270;SDS011;4673;53.458;9.940;2022-10-20T00:11:41;3.33;;;3.33;;
9270;SDS011;4673;53.458;9.940;2022-10-20T00:14:06;2.90;;;2.90;;
9270;SDS011;4673;53.458;9.940;2022-10-20T00:16:34;3.90;;;3.90;;
9270;SDS011;4673;53.458;9.940;2022-10-20T00:19:01;3.27;;;3.27;;
9270;SDS011;4673;53.458;9.940;2022-10-20T00:21:27;3.90;;;3.90;;
9270;SDS011;4673;53.458;9.940;2022-10-20T00:23:53;3.23;;;3.23;;
9270;SDS011;4673;53.458;9.940;2022-10-20T00:26:23;2.90;;;2.90;;
9270;SDS011;4673;53.458;9.940;2022-10-20T00:28:51;3.33;;;3.33;;
9270;SDS011;4673;53.458;9.940;2022-10-20T00:31:18;3.17;;;3.17;;
9270;SDS011;4673;53.458;9.940;2022-10-20T00:33:44;3.73;;;3.73;;
9270;SDS011;4673;53.458;9.940;2022-10-20T00:36:12;2.63;;;2.63;;
9270;SDS011;4673;53.458;9.940;2022-10-20T00:38:39;3.20;;;3.20;;
9270;SDS011;4673;53.458;9.940;2022-10-20T00:41:05;2.90;;;2.90;;
9270;SDS011;4673;53.458;9.940;2022-10-20T00:43:42;3.70;;;3.70;;
9270;SDS011;4673;53.458;9.940;2022-10-20T00:46:21;3.07;;;3.07;;
9270;SDS011;4673;53.458;9.940;2022-10-20T00:48:56;3.73;;;3.73;;
9270;SDS011;4673;53.458;9.940;2022-10-20T00:51:25;3.47;;;3.47;;
9270;SDS011;4673;53.458;9.940;2022-10-20T00:53:55;3.57;;;3.57;;
9270;SDS011;4673;53.458;9.940;2022-10-20T00:56:26;3.23;;;3.23;;
9270;SDS011;4673;53.458;9.940;2022-10-20T00:58:52;3.53;;;3.53;;
9270;SDS011;4673;53.458;9.940;2022-10-20T01:01:18;3.50;;;3.50;;
9270;SDS011;4673;53.458;9.940;2022-10-20T01:03:45;3.30;;;3.30;;
9270;SDS011;4673;53.458;9.940;2022-10-20T01:06:14;3.27;;;3.27;;
9270;SDS011;4673;53.458;9.940;2022-10-20T01:08:41;3.87;;;3.87;;
9270;SDS011;4673;53.458;9.940;2022-10-20T01:11:15;3.43;;;3.43;;
9270;SDS011;4673;53.458;9.940;2022-10-20T01:22:18;3.13;;;3.13;;
9270;SDS011;4673;53.458;9.940;2022-10-20T01:27:26;3.43;;;3.43;;
9270;SDS011;4673;53.458;9.940;2022-10-20T01:30:03;3.60;;;3.60;;
9270;SDS011;4673;53.458;9.940;2022-10-20T01:32:37;3.67;;;3.67;;
9270;SDS011;4673;53.458;9.940;2022-10-20T01:38:35;3.50;;;3.50;;
9270;SDS011;4673;53.458;9.940;2022-10-20T01:41:12;3.20;;;3.20;;
9270;SDS011;4673;53.458;9.940;2022-10-20T01:43:44;3.23;;;3.23;;
9270;SDS011;4673;53.458;9.940;2022-10-20T01:46:12;3.60;;;3.60;;
9270;SDS011;4673;53.458;9.940;2022-10-20T01:48:40;3.13;;;3.13;;
9270;SDS011;4673;53.458;9.940;2022-10-20T01:51:06;3.10;;;3.10;;
9270;SDS011;4673;53.458;9.940;2022-10-20T01:53:33;3.23;;;3.23;;
9270;SDS011;4673;53.458;9.940;2022-10-20T01:55:59;3.07;;;3.07;;
9270;SDS011;4673;53.458;9.940;2022-10-20T02:01:16;2.97;;;2.97;;
9270;SDS011;4673;53.458;9.940;2022-10-20T02:04:11;3.33;;;3.33;;
9270;SDS011;4673;53.458;9.940;2022-10-20T02:06:41;3.40;;;3.40;;
9270;SDS011;4673;53.458;9.940;2022-10-20T02:09:12;3.27;;;3.27;;
9270;SDS011;4673;53.458;9.940;2022-10-20T02:14:19;3.30;;;3.30;;
9270;SDS011;4673;53.458;9.940;2022-10-20T02:16:46;3.03;;;3.03;;
9270;SDS011;4673;53.458;9.940;2022-10-20T02:19:35;3.10;;;3.10;;
9270;SDS011;4673;53.458;9.940;2022-10-20T02:22:04;3.43;;;3.43;;
9270;SDS011;4673;53.458;9.940;2022-10-20T02:24:35;4.03;;;4.03;;
9270;SDS011;4673;53.458;9.940;2022-10-20T02:27:13;3.30;;;3.30;;
9270;SDS011;4673;53.458;9.940;2022-10-20T02:29:56;3.67;;;3.67;;
9270;SDS011;4673;53.458;9.940;2022-10-20T02:32:26;3.03;;;3.03;;
9270;SDS011;4673;53.458;9.940;2022-10-20T02:34:53;3.07;;;3.07;;
9270;SDS011;4673;53.458;9.940;2022-10-20T02:37:19;3.23;;;3.23;;
9270;SDS011;4673;53.458;9.940;2022-10-20T02:39:44;3.77;;;3.77;;
9270;SDS011;4673;53.458;9.940;2022-10-20T02:42:10;3.23;;;3.23;;
9270;SDS011;4673;53.458;9.940;2022-10-20T02:44:36;3.50;;;3.50;;
9270;SDS011;4673;53.458;9.940;2022-10-20T02:47:02;3.30;;;3.30;;
9270;SDS011;4673;53.458;9.940;2022-10-20T02:49:28;3.50;;;3.50;;
9270;SDS011;4673;53.458;9.940;2022-10-20T02:51:53;3.10;;;3.10;;
9270;SDS011;4673;53.458;9.940;2022-10-20T02:54:19;3.77;;;3.77;;
9270;SDS011;4673;53.458;9.940;2022-10-20T02:56:45;3.00;;;3.00;;
9270;SDS011;4673;53.458;9.940;2022-10-20T02:59:11;2.63;;;2.63;;
9270;SDS011;4673;53.458;9.940;2022-10-20T03:01:39;3.20;;;3.20;;
9270;SDS011;4673;53.458;9.940;2022-10-20T03:04:04;3.10;;;3.10;;
9270;SDS011;4673;53.458;9.940;2022-10-20T03:06:30;3.30;;;3.30;;
9270;SDS011;4673;53.458;9.940;2022-10-20T03:08:56;3.77;;;3.77;;
9270;SDS011;4673;53.458;9.940;2022-10-20T03:11:21;2.63;;;2.63;;
9270;SDS011;4673;53.458;9.940;2022-10-20T03:13:47;2.90;;;2.90;;
9270;SDS011;4673;53.458;9.940;2022-10-20T03:16:13;3.60;;;3.60;;
9270;SDS011;4673;53.458;9.940;2022-10-20T03:18:38;3.40;;;3.40;;
9270;SDS011;4673;53.458;9.940;2022-10-20T03:21:04;3.33;;;3.33;;
9270;SDS011;4673;53.458;9.940;2022-10-20T03:23:29;3.13;;;3.13;;
9270;SDS011;4673;53.458;9.940;2022-10-20T03:26:05;2.83;;;2.83;;
9270;SDS011;4673;53.458;9.940;2022-10-20T03:28:32;3.20;;;3.20;;
9270;SDS011;4673;53.458;9.940;2022-10-20T03:30:58;3.17;;;3.17;;
9270;SDS011;4673;53.458;9.940;2022-10-20T03:33:23;3.77;;;3.77;;
9270;SDS011;4673;53.458;9.940;2022-10-20T03:35:49;3.73;;;3.73;;
9270;SDS011;4673;53.458;9.940;2022-10-20T03:38:15;3.10;;;3.10;;
9270;SDS011;4673;53.458;9.940;2022-10-20T03:40:40;3.63;;;3.63;;
9270;SDS011;4673;53.458;9.940;2022-10-20T03:43:06;3.53;;;3.53;;
9270;SDS011;4673;53.458;9.940;2022-10-20T03:45:32;3.83;;;3.83;;
9270;SDS011;4673;53.458;9.940;2022-10-20T03:47:57;3.77;;;3.77;;
9270;SDS011;4673;53.458;9.940;2022-10-20T03:50:23;4.23;;;4.23;;
9270;SDS011;4673;53.458;9.940;2022-10-20T03:52:49;3.43;;;3.43;;
9270;SDS011;4673;53.458;9.940;2022-10-20T03:55:15;3.63;;;3.63;;
9270;SDS011;4673;53.458;9.940;2022-10-20T03:57:41;4.27;;;4.27;;
9270;SDS011;4673;53.458;9.940;2022-10-20T04:00:07;3.30;;;3.30;;
9270;SDS011;4673;53.458;9.940;2022-10-20T04:02:38;3.57;;;3.57;;
9270;SDS011;4673;53.458;9.940;2022-10-20T04:05:16;3.83;;;3.83;;
9270;SDS011;4673;53.458;9.940;2022-10-20T04:07:43;3.77;;;3.77;;
9270;SDS011;4673;53.458;9.940;2022-10-20T04:10:10;3.80;;;3.80;;
9270;SDS011;4673;53.458;9.940;2022-10-20T04:12:35;3.53;;;3.53;;
9270;SDS011;4673;53.458;9.940;2022-10-20T04:15:01;3.90;;;3.90;;
9270;SDS011;4673;53.458;9.940;2022-10-20T04:17:28;3.60;;;3.60;;
9270;SDS011;4673;53.458;9.940;2022-10-20T04:19:53;3.97;;;3.97;;
9270;SDS011;4673;53.458;9.940;2022-10-20T04:22:19;4.17;;;4.17;;
9270;SDS011;4673;53.458;9.940;2022-10-20T04:24:45;3.70;;;3.70;;
9270;SDS011;4673;53.458;9.940;2022-10-20T04:27:10;3.83;;;3.83;;
9270;SDS011;4673;53.458;9.940;2022-10-20T04:29:36;3.73;;;3.73;;
9270;SDS011;4673;53.458;9.940;2022-10-20T04:32:02;4.00;;;4.00;;
9270;SDS011;4673;53.458;9.940;2022-10-20T04:34:27;4.20;;;4.20;;
9270;SDS011;4673;53.458;9.940;2022-10-20T04:36:53;4.17;;;4.17;;
9270;SDS011;4673;53.458;9.940;2022-10-20T04:39:19;4.60;;;4.60;;
9270;SDS011;4673;53.458;9.940;2022-10-20T04:41:44;4.10;;;4.10;;
9270;SDS011;4673;53.458;9.940;2022-10-20T04:44:10;4.17;;;4.17;;
9270;SDS011;4673;53.458;9.940;2022-10-20T04:46:35;4.00;;;4.00;;
9270;SDS011;4673;53.458;9.940;2022-10-20T04:49:01;3.97;;;3.97;;
9270;SDS011;4673;53.458;9.940;2022-10-20T04:51:27;4.40;;;4.40;;
9270;SDS011;4673;53.458;9.940;2022-10-20T04:53:52;4.30;;;4.30;;
9270;SDS011;4673;53.458;9.940;2022-10-20T04:56:19;3.90;;;3.90;;
9270;SDS011;4673;53.458;9.940;2022-10-20T04:58:50;4.40;;;4.40;;
9270;SDS011;4673;53.458;9.940;2022-10-20T05:01:21;4.20;;;4.20;;
9270;SDS011;4673;53.458;9.940;2022-10-20T05:03:49;4.27;;;4.27;;
9270;SDS011;4673;53.458;9.940;2022-10-20T05:06:15;4.43;;;4.43;;
9270;SDS011;4673;53.458;9.940;2022-10-20T05:08:43;4.40;;;4.40;;
9270;SDS011;4673;53.458;9.940;2022-10-20T05:11:11;3.50;;;3.50;;
9270;SDS011;4673;53.458;9.940;2022-10-20T05:13:38;4.33;;;4.33;;
9270;SDS011;4673;53.458;9.940;2022-10-20T05:16:04;5.13;;;5.13;;
9270;SDS011;4673;53.458;9.940;2022-10-20T05:18:30;4.27;;;4.27;;
9270;SDS011;4673;53.458;9.940;2022-10-20T05:20:56;4.80;;;4.80;;
9270;SDS011;4673;53.458;9.940;2022-10-20T05:23:22;4.33;;;4.33;;
9270;SDS011;4673;53.458;9.940;2022-10-20T05:25:48;5.37;;;5.37;;
9270;SDS011;4673;53.458;9.940;2022-10-20T05:28:13;5.57;;;5.57;;
9270;SDS011;4673;53.458;9.940;2022-10-20T05:30:39;7.87;;;7.87;;
9270;SDS011;4673;53.458;9.940;2022-10-20T05:33:04;4.70;;;4.70;;
9270;SDS011;4673;53.458;9.940;2022-10-20T05:35:30;4.73;;;4.73;;
9270;SDS011;4673;53.458;9.940;2022-10-20T05:37:56;5.07;;;5.07;;
9270;SDS011;4673;53.458;9.940;2022-10-20T05:40:22;5.57;;;5.57;;
9270;SDS011;4673;53.458;9.940;2022-10-20T05:42:48;5.33;;;5.33;;
9270;SDS011;4673;53.458;9.940;2022-10-20T05:45:13;5.30;;;5.30;;
9270;SDS011;4673;53.458;9.940;2022-10-20T05:47:39;6.03;;;6.03;;
9270;SDS011;4673;53.458;9.940;2022-10-20T05:50:06;5.33;;;5.33;;
9270;SDS011;4673;53.458;9.940;2022-10-20T05:52:33;5.00;;;5.00;;
9270;SDS011;4673;53.458;9.940;2022-10-20T05:54:59;5.93;;;5.90;;
9270;SDS011;4673;53.458;9.940;2022-10-20T05:57:24;5.43;;;5.43;;
9270;SDS011;4673;53.458;9.940;2022-10-20T05:59:50;5.70;;;5.70;;
9270;SDS011;4673;53.458;9.940;2022-10-20T06:02:15;5.30;;;5.30;;
9270;SDS011;4673;53.458;9.940;2022-10-20T06:04:41;6.07;;;6.07;;
9270;SDS011;4673;53.458;9.940;2022-10-20T06:07:07;5.83;;;5.83;;
9270;SDS011;4673;53.458;9.940;2022-10-20T06:09:35;5.13;;;5.13;;
9270;SDS011;4673;53.458;9.940;2022-10-20T06:12:02;4.73;;;4.73;;
9270;SDS011;4673;53.458;9.940;2022-10-20T06:14:28;5.73;;;5.73;;
9270;SDS011;4673;53.458;9.940;2022-10-20T06:16:54;5.60;;;5.60;;
9270;SDS011;4673;53.458;9.940;2022-10-20T06:19:21;6.20;;;6.20;;
9270;SDS011;4673;53.458;9.940;2022-10-20T06:21:47;6.90;;;6.90;;
9270;SDS011;4673;53.458;9.940;2022-10-20T06:24:12;6.37;;;6.37;;
9270;SDS011;4673;53.458;9.940;2022-10-20T06:26:38;6.43;;;6.43;;
9270;SDS011;4673;53.458;9.940;2022-10-20T06:29:05;7.93;;;7.93;;
9270;SDS011;4673;53.458;9.940;2022-10-20T06:31:34;6.97;;;6.97;;
9270;SDS011;4673;53.458;9.940;2022-10-20T06:34:03;7.43;;;7.43;;
9270;SDS011;4673;53.458;9.940;2022-10-20T06:36:33;7.93;;;7.93;;
9270;SDS011;4673;53.458;9.940;2022-10-20T06:39:02;6.73;;;6.73;;
9270;SDS011;4673;53.458;9.940;2022-10-20T06:41:29;6.93;;;6.93;;
9270;SDS011;4673;53.458;9.940;2022-10-20T06:43:55;7.30;;;7.30;;
9270;SDS011;4673;53.458;9.940;2022-10-20T06:46:25;7.30;;;7.27;;
9270;SDS011;4673;53.458;9.940;2022-10-20T06:48:52;8.17;;;8.17;;
9270;SDS011;4673;53.458;9.940;2022-10-20T06:51:18;8.40;;;8.40;;
9270;SDS011;4673;53.458;9.940;2022-10-20T06:53:46;7.87;;;7.87;;
9270;SDS011;4673;53.458;9.940;2022-10-20T06:56:16;8.90;;;8.87;;
9270;SDS011;4673;53.458;9.940;2022-10-20T06:58:44;9.57;;;9.57;;
9270;SDS011;4673;53.458;9.940;2022-10-20T07:03:39;9.03;;;9.03;;
9270;SDS011;4673;53.458;9.940;2022-10-20T07:06:06;9.73;;;9.73;;
9270;SDS011;4673;53.458;9.940;2022-10-20T07:08:33;9.20;;;9.20;;
9270;SDS011;4673;53.458;9.940;2022-10-20T07:11:10;9.60;;;9.60;;
9270;SDS011;4673;53.458;9.940;2022-10-20T07:13:38;9.83;;;9.73;;
9270;SDS011;4673;53.458;9.940;2022-10-20T07:16:05;11.23;;;11.20;;
9270;SDS011;4673;53.458;9.940;2022-10-20T07:18:31;11.67;;;11.57;;
9270;SDS011;4673;53.458;9.940;2022-10-20T07:20:58;11.07;;;10.97;;
9270;SDS011;4673;53.458;9.940;2022-10-20T07:23:26;11.50;;;11.47;;
9270;SDS011;4673;53.458;9.940;2022-10-20T07:25:58;11.50;;;11.40;;
9270;SDS011;4673;53.458;9.940;2022-10-20T07:28:28;12.13;;;12.13;;
9270;SDS011;4673;53.458;9.940;2022-10-20T07:30:54;10.57;;;10.57;;
9270;SDS011;4673;53.458;9.940;2022-10-20T07:33:20;11.20;;;11.10;;
9270;SDS011;4673;53.458;9.940;2022-10-20T07:35:46;10.47;;;10.47;;
9270;SDS011;4673;53.458;9.940;2022-10-20T07:38:13;9.83;;;9.83;;
9270;SDS011;4673;53.458;9.940;2022-10-20T07:40:38;8.73;;;8.73;;
9270;SDS011;4673;53.458;9.940;2022-10-20T07:43:04;7.43;;;7.43;;
9270;SDS011;4673;53.458;9.940;2022-10-20T07:45:29;12.20;;;12.10;;
9270;SDS011;4673;53.458;9.940;2022-10-20T07:47:55;6.53;;;6.53;;
9270;SDS011;4673;53.458;9.940;2022-10-20T07:50:21;7.17;;;7.17;;
9270;SDS011;4673;53.458;9.940;2022-10-20T07:52:50;6.50;;;6.50;;
9270;SDS011;4673;53.458;9.940;2022-10-20T07:55:17;6.57;;;6.57;;
9270;SDS011;4673;53.458;9.940;2022-10-20T07:57:43;6.37;;;6.37;;
9270;SDS011;4673;53.458;9.940;2022-10-20T08:00:09;7.57;;;7.57;;
9270;SDS011;4673;53.458;9.940;2022-10-20T08:02:35;6.30;;;6.30;;
9270;SDS011;4673;53.458;9.940;2022-10-20T08:07:34;6.23;;;6.23;;
9270;SDS011;4673;53.458;9.940;2022-10-20T08:09:59;6.53;;;6.53;;
9270;SDS011;4673;53.458;9.940;2022-10-20T08:12:25;6.83;;;6.83;;
9270;SDS011;4673;53.458;9.940;2022-10-20T08:14:50;6.80;;;6.80;;
9270;SDS011;4673;53.458;9.940;2022-10-20T08:17:16;6.37;;;6.37;;
9270;SDS011;4673;53.458;9.940;2022-10-20T08:19:42;7.13;;;7.13;;
9270;SDS011;4673;53.458;9.940;2022-10-20T08:22:08;6.63;;;6.63;;
9270;SDS011;4673;53.458;9.940;2022-10-20T08:24:34;7.60;;;7.60;;
9270;SDS011;4673;53.458;9.940;2022-10-20T08:27:00;6.83;;;6.83;;
9270;SDS011;4673;53.458;9.940;2022-10-20T08:29:26;6.13;;;6.13;;
9270;SDS011;4673;53.458;9.940;2022-10-20T08:31:52;6.13;;;6.13;;
9270;SDS011;4673;53.458;9.940;2022-10-20T08:34:17;6.20;;;6.20;;
9270;SDS011;4673;53.458;9.940;2022-10-20T08:36:43;5.40;;;5.40;;
9270;SDS011;4673;53.458;9.940;2022-10-20T08:39:08;5.77;;;5.77;;
9270;SDS011;4673;53.458;9.940;2022-10-20T08:41:38;5.60;;;5.60;;
9270;SDS011;4673;53.458;9.940;2022-10-20T08:44:13;5.60;;;5.60;;
9270;SDS011;4673;53.458;9.940;2022-10-20T08:46:43;5.10;;;5.10;;
9270;SDS011;4673;53.458;9.940;2022-10-20T08:49:21;5.80;;;5.80;;
9270;SDS011;4673;53.458;9.940;2022-10-20T08:51:49;5.10;;;5.10;;
9270;SDS011;4673;53.458;9.940;2022-10-20T08:54:16;4.70;;;4.70;;
9270;SDS011;4673;53.458;9.940;2022-10-20T08:56:42;4.83;;;4.83;;
9270;SDS011;4673;53.458;9.940;2022-10-20T09:01:49;4.37;;;4.37;;
9270;SDS011;4673;53.458;9.940;2022-10-20T09:06:52;4.13;;;4.13;;
9270;SDS011;4673;53.458;9.940;2022-10-20T09:09:21;4.20;;;4.20;;
9270;SDS011;4673;53.458;9.940;2022-10-20T09:11:48;4.33;;;4.33;;
9270;SDS011;4673;53.458;9.940;2022-10-20T09:14:15;3.97;;;3.97;;
9270;SDS011;4673;53.458;9.940;2022-10-20T09:16:41;3.60;;;3.60;;
9270;SDS011;4673;53.458;9.940;2022-10-20T09:19:20;3.97;;;3.97;;
9270;SDS011;4673;53.458;9.940;2022-10-20T09:21:49;3.67;;;3.67;;
9270;SDS011;4673;53.458;9.940;2022-10-20T09:24:17;3.37;;;3.37;;
9270;SDS011;4673;53.458;9.940;2022-10-20T09:26:46;3.60;;;3.60;;
9270;SDS011;4673;53.458;9.940;2022-10-20T09:29:13;3.53;;;3.53;;
9270;SDS011;4673;53.458;9.940;2022-10-20T09:31:45;3.63;;;3.63;;
9270;SDS011;4673;53.458;9.940;2022-10-20T09:36:43;3.33;;;3.33;;
9270;SDS011;4673;53.458;9.940;2022-10-20T09:39:16;4.00;;;4.00;;
9270;SDS011;4673;53.458;9.940;2022-10-20T09:42:02;3.50;;;3.50;;
9270;SDS011;4673;53.458;9.940;2022-10-20T09:44:35;3.30;;;3.30;;
9270;SDS011;4673;53.458;9.940;2022-10-20T09:47:11;3.00;;;3.00;;
9270;SDS011;4673;53.458;9.940;2022-10-20T09:49:39;4.57;;;4.57;;
9270;SDS011;4673;53.458;9.940;2022-10-20T09:52:15;3.30;;;3.30;;
9270;SDS011;4673;53.458;9.940;2022-10-20T09:54:45;2.70;;;2.70;;
9270;SDS011;4673;53.458;9.940;2022-10-20T09:57:16;3.50;;;3.50;;
9270;SDS011;4673;53.458;9.940;2022-10-20T09:59:44;3.40;;;3.40;;
9270;SDS011;4673;53.458;9.940;2022-10-20T10:04:39;2.90;;;2.90;;
9270;SDS011;4673;53.458;9.940;2022-10-20T10:12:54;2.90;;;2.90;;
9270;SDS011;4673;53.458;9.940;2022-10-20T10:15:25;2.23;;;2.23;;
9270;SDS011;4673;53.458;9.940;2022-10-20T10:17:53;2.70;;;2.70;;
9270;SDS011;4673;53.458;9.940;2022-10-20T10:20:31;2.43;;;2.43;;
9270;SDS011;4673;53.458;9.940;2022-10-20T10:23:19;2.50;;;2.50;;
9270;SDS011;4673;53.458;9.940;2022-10-20T10:25:52;2.30;;;2.30;;
9270;SDS011;4673;53.458;9.940;2022-10-20T10:28:20;2.20;;;2.20;;
9270;SDS011;4673;53.458;9.940;2022-10-20T10:33:40;2.50;;;2.50;;
9270;SDS011;4673;53.458;9.940;2022-10-20T10:36:06;2.70;;;2.70;;
9270;SDS011;4673;53.458;9.940;2022-10-20T10:38:41;3.20;;;3.20;;
9270;SDS011;4673;53.458;9.940;2022-10-20T10:41:21;2.50;;;2.50;;
9270;SDS011;4673;53.458;9.940;2022-10-20T10:46:25;2.47;;;2.47;;
9270;SDS011;4673;53.458;9.940;2022-10-20T10:49:21;2.40;;;2.40;;
9270;SDS011;4673;53.458;9.940;2022-10-20T10:52:07;2.70;;;2.70;;
9270;SDS011;4673;53.458;9.940;2022-10-20T10:57:25;3.27;;;3.27;;
9270;SDS011;4673;53.458;9.940;2022-10-20T11:00:12;3.00;;;3.00;;
9270;SDS011;4673;53.458;9.940;2022-10-20T11:13:31;3.43;;;3.43;;
9270;SDS011;4673;53.458;9.940;2022-10-20T11:27:13;3.57;;;3.57;;
9270;SDS011;4673;53.458;9.940;2022-10-20T11:29:55;3.87;;;3.87;;
9270;SDS011;4673;53.458;9.940;2022-10-20T11:38:14;2.90;;;2.90;;
9270;SDS011;4673;53.458;9.940;2022-10-20T11:40:47;5.10;;;5.10;;
9270;SDS011;4673;53.458;9.940;2022-10-20T11:43:28;3.43;;;3.43;;
9270;SDS011;4673;53.458;9.940;2022-10-20T11:46:05;3.20;;;3.20;;
9270;SDS011;4673;53.458;9.940;2022-10-20T11:48:56;4.07;;;4.07;;
9270;SDS011;4673;53.458;9.940;2022-10-20T12:07:40;3.07;;;3.07;;
9270;SDS011;4673;53.458;9.940;2022-10-20T12:15:57;3.47;;;3.47;;
9270;SDS011;4673;53.458;9.940;2022-10-20T12:18:28;3.90;;;3.90;;
9270;SDS011;4673;53.458;9.940;2022-10-20T12:20:59;3.30;;;3.30;;
9270;SDS011;4673;53.458;9.940;2022-10-20T12:28:58;3.97;;;3.97;;
9270;SDS011;4673;53.458;9.940;2022-10-20T12:34:28;3.87;;;3.87;;
9270;SDS011;4673;53.458;9.940;2022-10-20T12:37:07;3.80;;;3.80;;
9270;SDS011;4673;53.458;9.940;2022-10-20T12:39:44;4.00;;;4.00;;
9270;SDS011;4673;53.458;9.940;2022-10-20T12:42:30;4.17;;;4.17;;
9270;SDS011;4673;53.458;9.940;2022-10-20T12:45:02;4.10;;;4.10;;
9270;SDS011;4673;53.458;9.940;2022-10-20T12:47:31;4.27;;;4.27;;
9270;SDS011;4673;53.458;9.940;2022-10-20T12:52:30;3.73;;;3.73;;
9270;SDS011;4673;53.458;9.940;2022-10-20T12:55:02;4.03;;;4.03;;
9270;SDS011;4673;53.458;9.940;2022-10-20T12:57:33;3.80;;;3.80;;
9270;SDS011;4673;53.458;9.940;2022-10-20T13:00:06;3.30;;;3.30;;
9270;SDS011;4673;53.458;9.940;2022-10-20T13:02:53;3.63;;;3.63;;
9270;SDS011;4673;53.458;9.940;2022-10-20T13:10:43;3.20;;;3.20;;
9270;SDS011;4673;53.458;9.940;2022-10-20T13:23:13;2.80;;;2.80;;
9270;SDS011;4673;53.458;9.940;2022-10-20T13:25:47;3.30;;;3.30;;
9270;SDS011;4673;53.458;9.940;2022-10-20T13:28:19;2.97;;;2.97;;
9270;SDS011;4673;53.458;9.940;2022-10-20T13:33:49;2.70;;;2.70;;
9270;SDS011;4673;53.458;9.940;2022-10-20T13:45:02;2.50;;;2.50;;
9270;SDS011;4673;53.458;9.940;2022-10-20T13:50:17;2.67;;;2.67;;
9270;SDS011;4673;53.458;9.940;2022-10-20T13:52:52;3.17;;;3.17;;
9270;SDS011;4673;53.458;9.940;2022-10-20T13:55:26;2.83;;;2.83;;
9270;SDS011;4673;53.458;9.940;2022-10-20T13:57:55;2.23;;;2.23;;
9270;SDS011;4673;53.458;9.940;2022-10-20T14:00:25;2.20;;;2.20;;
9270;SDS011;4673;53.458;9.940;2022-10-20T14:02:59;2.50;;;2.50;;
9270;SDS011;4673;53.458;9.940;2022-10-20T14:07:58;2.40;;;2.40;;
9270;SDS011;4673;53.458;9.940;2022-10-20T14:10:27;2.30;;;2.30;;
9270;SDS011;4673;53.458;9.940;2022-10-20T14:12:59;2.63;;;2.63;;
9270;SDS011;4673;53.458;9.940;2022-10-20T14:15:29;2.37;;;2.37;;
9270;SDS011;4673;53.458;9.940;2022-10-20T14:17:59;2.30;;;2.30;;
9270;SDS011;4673;53.458;9.940;2022-10-20T14:20:30;2.20;;;2.20;;
9270;SDS011;4673;53.458;9.940;2022-10-20T14:22:58;2.23;;;2.23;;
9270;SDS011;4673;53.458;9.940;2022-10-20T14:25:26;2.50;;;2.50;;
9270;SDS011;4673;53.458;9.940;2022-10-20T14:27:53;2.43;;;2.43;;
9270;SDS011;4673;53.458;9.940;2022-10-20T14:30:19;2.67;;;2.67;;
9270;SDS011;4673;53.458;9.940;2022-10-20T14:32:46;2.50;;;2.50;;
9270;SDS011;4673;53.458;9.940;2022-10-20T14:40:23;2.50;;;2.50;;
9270;SDS011;4673;53.458;9.940;2022-10-20T14:43:16;2.37;;;2.37;;
9270;SDS011;4673;53.458;9.940;2022-10-20T14:45:54;2.50;;;2.50;;
9270;SDS011;4673;53.458;9.940;2022-10-20T14:48:23;2.40;;;2.40;;
9270;SDS011;4673;53.458;9.940;2022-10-20T14:51:01;2.67;;;2.67;;
9270;SDS011;4673;53.458;9.940;2022-10-20T14:54:10;2.10;;;2.10;;
9270;SDS011;4673;53.458;9.940;2022-10-20T14:56:46;2.80;;;2.80;;
9270;SDS011;4673;53.458;9.940;2022-10-20T14:59:12;2.30;;;2.30;;
9270;SDS011;4673;53.458;9.940;2022-10-20T15:01:39;2.50;;;2.50;;
9270;SDS011;4673;53.458;9.940;2022-10-20T15:04:13;3.23;;;3.23;;
9270;SDS011;4673;53.458;9.940;2022-10-20T15:06:45;3.50;;;3.50;;
9270;SDS011;4673;53.458;9.940;2022-10-20T15:09:26;3.40;;;3.40;;
9270;SDS011;4673;53.458;9.940;2022-10-20T15:11:56;3.17;;;3.17;;
9270;SDS011;4673;53.458;9.940;2022-10-20T15:14:22;2.97;;;2.97;;
9270;SDS011;4673;53.458;9.940;2022-10-20T15:16:48;3.43;;;3.43;;
9270;SDS011;4673;53.458;9.940;2022-10-20T15:19:23;3.10;;;3.10;;
9270;SDS011;4673;53.458;9.940;2022-10-20T15:21:58;3.47;;;3.47;;
9270;SDS011;4673;53.458;9.940;2022-10-20T15:24:26;3.50;;;3.50;;
9270;SDS011;4673;53.458;9.940;2022-10-20T15:26:53;3.50;;;3.50;;
9270;SDS011;4673;53.458;9.940;2022-10-20T15:29:19;3.43;;;3.43;;
9270;SDS011;4673;53.458;9.940;2022-10-20T15:31:45;3.30;;;3.30;;
9270;SDS011;4673;53.458;9.940;2022-10-20T15:34:10;3.20;;;3.20;;
9270;SDS011;4673;53.458;9.940;2022-10-20T15:36:36;3.90;;;3.90;;
9270;SDS011;4673;53.458;9.940;2022-10-20T15:39:02;3.43;;;3.43;;
9270;SDS011;4673;53.458;9.940;2022-10-20T15:41:29;3.50;;;3.50;;
9270;SDS011;4673;53.458;9.940;2022-10-20T15:44:09;3.90;;;3.90;;
9270;SDS011;4673;53.458;9.940;2022-10-20T15:46:46;3.53;;;3.53;;
9270;SDS011;4673;53.458;9.940;2022-10-20T15:49:14;3.60;;;3.60;;
9270;SDS011;4673;53.458;9.940;2022-10-20T15:51:40;3.57;;;3.57;;
9270;SDS011;4673;53.458;9.940;2022-10-20T15:54:10;3.90;;;3.90;;
9270;SDS011;4673;53.458;9.940;2022-10-20T15:56:41;3.90;;;3.90;;
9270;SDS011;4673;53.458;9.940;2022-10-20T15:59:07;4.00;;;4.00;;
9270;SDS011;4673;53.458;9.940;2022-10-20T16:01:33;3.80;;;3.80;;
9270;SDS011;4673;53.458;9.940;2022-10-20T16:04:00;3.80;;;3.80;;
9270;SDS011;4673;53.458;9.940;2022-10-20T16:06:36;3.70;;;3.70;;
9270;SDS011;4673;53.458;9.940;2022-10-20T16:09:02;3.87;;;3.87;;
9270;SDS011;4673;53.458;9.940;2022-10-20T16:11:28;4.57;;;4.57;;
9270;SDS011;4673;53.458;9.940;2022-10-20T16:13:54;5.47;;;5.47;;
9270;SDS011;4673;53.458;9.940;2022-10-20T16:16:20;13.73;;;13.63;;
9270;SDS011;4673;53.458;9.940;2022-10-20T16:18:45;6.53;;;6.53;;
9270;SDS011;4673;53.458;9.940;2022-10-20T16:21:11;6.17;;;6.17;;
9270;SDS011;4673;53.458;9.940;2022-10-20T16:23:36;5.77;;;5.77;;
9270;SDS011;4673;53.458;9.940;2022-10-20T16:26:03;4.87;;;4.87;;
9270;SDS011;4673;53.458;9.940;2022-10-20T16:28:36;4.53;;;4.53;;
9270;SDS011;4673;53.458;9.940;2022-10-20T16:31:03;4.23;;;4.23;;
9270;SDS011;4673;53.458;9.940;2022-10-20T16:33:31;4.67;;;4.67;;
9270;SDS011;4673;53.458;9.940;2022-10-20T16:35:59;5.00;;;5.00;;
9270;SDS011;4673;53.458;9.940;2022-10-20T16:38:26;5.47;;;5.47;;
9270;SDS011;4673;53.458;9.940;2022-10-20T16:40:55;5.50;;;5.50;;
9270;SDS011;4673;53.458;9.940;2022-10-20T16:43:22;5.50;;;5.50;;
9270;SDS011;4673;53.458;9.940;2022-10-20T16:45:48;6.00;;;6.00;;
9270;SDS011;4673;53.458;9.940;2022-10-20T16:48:13;6.10;;;6.10;;
9270;SDS011;4673;53.458;9.940;2022-10-20T16:50:40;5.30;;;5.30;;
9270;SDS011;4673;53.458;9.940;2022-10-20T16:53:06;5.80;;;5.80;;
9270;SDS011;4673;53.458;9.940;2022-10-20T16:55:31;5.90;;;5.90;;
9270;SDS011;4673;53.458;9.940;2022-10-20T16:57:57;5.40;;;5.40;;
9270;SDS011;4673;53.458;9.940;2022-10-20T17:00:23;8.30;;;8.30;;
9270;SDS011;4673;53.458;9.940;2022-10-20T17:02:48;8.37;;;8.37;;
9270;SDS011;4673;53.458;9.940;2022-10-20T17:05:16;6.67;;;6.67;;
9270;SDS011;4673;53.458;9.940;2022-10-20T17:07:43;5.13;;;5.13;;
9270;SDS011;4673;53.458;9.940;2022-10-20T17:10:09;4.77;;;4.77;;
9270;SDS011;4673;53.458;9.940;2022-10-20T17:12:34;4.70;;;4.70;;
9270;SDS011;4673;53.458;9.940;2022-10-20T17:15:00;4.83;;;4.83;;
9270;SDS011;4673;53.458;9.940;2022-10-20T17:17:26;5.40;;;5.40;;
9270;SDS011;4673;53.458;9.940;2022-10-20T17:19:51;10.13;;;10.03;;
9270;SDS011;4673;53.458;9.940;2022-10-20T17:22:17;9.47;;;9.47;;
9270;SDS011;4673;53.458;9.940;2022-10-20T17:24:42;9.83;;;9.83;;
9270;SDS011;4673;53.458;9.940;2022-10-20T17:27:08;6.77;;;6.77;;
9270;SDS011;4673;53.458;9.940;2022-10-20T17:29:34;7.93;;;7.93;;
9270;SDS011;4673;53.458;9.940;2022-10-20T17:32:00;8.63;;;8.63;;
9270;SDS011;4673;53.458;9.940;2022-10-20T17:34:25;7.77;;;7.77;;
9270;SDS011;4673;53.458;9.940;2022-10-20T17:36:51;5.70;;;5.70;;
9270;SDS011;4673;53.458;9.940;2022-10-20T17:39:16;5.83;;;5.83;;
9270;SDS011;4673;53.458;9.940;2022-10-20T17:41:45;7.57;;;7.57;;
9270;SDS011;4673;53.458;9.940;2022-10-20T17:44:11;6.53;;;6.53;;
9270;SDS011;4673;53.458;9.940;2022-10-20T17:46:37;8.33;;;8.33;;
9270;SDS011;4673;53.458;9.940;2022-10-20T17:49:03;8.47;;;8.47;;
9270;SDS011;4673;53.458;9.940;2022-10-20T17:51:29;6.20;;;6.20;;
9270;SDS011;4673;53.458;9.940;2022-10-20T17:53:55;5.87;;;5.87;;